Time;durP1;ratioP1;P1;durP2;ratioP2;P2;SDS_P1;SDS_P2;PMS_P1;PMS_P2;Temp;Humidity;BMP_temperature;BMP_pressure;BME280_temperature;BME280_humidity;BME280_pressure;Samples;Min_cycle;Max_cycle;Signal;HPM_P1;HPM_P2
2024/03/30 00:01:26;;;;;;;11.40;3.80;;;;;;;12.97;100.00;99854.53;5028775;28;20037;-70
2024/03/30 00:03:53;;;;;;;9.77;3.90;;;;;;;13.05;100.00;99776.78;5010945;28;20095;-70
2024/03/30 00:06:18;;;;;;;12.00;3.45;;;;;;;12.32;100.00;99630.19;5027535;28;20037;-70
2024/03/30 00:08:43;;;;;;;14.70;4.15;;;;;;;13.04;100.00;99700.28;5010327;28;21959;-70
2024/03/30 00:11:09;;;;;;;13.40;4.22;;;;;;;12.67;100.00;99525.00;5027702;28;20045;-71
2024/03/30 00:13:36;;;;;;;10.25;3.78;;;;;;;13.21;100.00;99615.34;5028632;28;21582;-71
2024/03/30 00:16:08;;;;;;;13.10;3.83;;;;;;;13.39;100.00;99587.25;5028127;28;20083;-71
2024/03/30 00:18:34;;;;;;;11.25;3.67;;;;;;;13.24;100.00;99490.94;5028564;28;20053;-71
2024/03/30 00:21:02;;;;;;;15.40;3.67;;;;;;;13.19;100.00;99517.59;5027924;28;20108;-74
2024/03/30 00:23:28;;;;;;;13.77;3.60;;;;;;;13.03;100.00;99423.84;5026925;28;20040;-71
2024/03/30 00:25:54;;;;;;;13.73;3.95;;;;;;;13.57;100.00;99488.50;5027549;28;21376;-71
2024/03/30 00:28:20;;;;;;;11.77;4.07;;;;;;;13.39;100.00;99480.00;5028251;28;20091;-70
2024/03/30 00:30:45;;;;;;;10.95;3.40;;;;;;;13.32;100.00;99476.09;5010236;28;20033;-72
2024/03/30 00:33:15;;;;;;;12.30;4.00;;;;;;;13.67;100.00;99467.56;5009862;28;20101;-72
2024/03/30 00:35:41;;;;;;;12.88;3.90;;;;;;;13.18;100.00;99371.28;5009077;28;20113;-70
2024/03/30 00:38:07;;;;;;;12.90;3.92;;;;;;;13.53;100.00;99446.97;5009957;28;20116;-70
2024/03/30 00:40:45;;;;;;;12.00;3.72;;;;;;;13.03;100.00;99285.22;5027180;28;20488;-70
2024/03/30 00:43:10;;;;;;;15.40;3.95;;;;;;;13.88;100.00;99471.63;5027162;28;20032;-70
2024/03/30 00:45:37;;;;;;;14.63;3.80;;;;;;;13.75;100.00;99482.53;5010253;28;20033;-72
2024/03/30 00:48:03;;;;;;;14.98;4.35;;;;;;;13.19;100.00;99385.69;5028271;28;20531;-70
2024/03/30 00:50:29;;;;;;;16.45;3.75;;;;;;;13.57;100.00;99481.69;5027250;28;20037;-71
2024/03/30 00:52:54;;;;;;;12.85;4.05;;;;;;;12.77;100.00;99350.25;5027820;28;20063;-71
2024/03/30 00:55:19;;;;;;;13.88;4.05;;;;;;;13.82;100.00;99500.06;5009757;28;20116;-71
2024/03/30 00:57:45;;;;;;;11.52;4.15;;;;;;;14.10;100.00;99457.78;5027586;28;20045;-70
2024/03/30 01:00:14;;;;;;;11.15;4.10;;;;;;;13.34;100.00;99394.31;5026967;28;20041;-70
2024/03/30 01:02:40;;;;;;;13.68;4.53;;;;;;;14.08;100.00;99480.03;5009689;28;20048;-71
2024/03/30 01:05:06;;;;;;;16.20;3.60;;;;;;;13.43;100.00;99397.25;5028063;28;20038;-69
2024/03/30 01:07:32;;;;;;;12.75;3.95;;;;;;;14.03;100.00;99495.59;5027495;28;20308;-70
2024/03/30 01:09:57;;;;;;;10.43;3.85;;;;;;;14.01;100.00;99478.69;5027593;28;20399;-69
2024/03/30 01:12:25;;;;;;;14.63;4.03;;;;;;;14.11;100.00;99518.22;5027701;28;20110;-70
2024/03/30 01:14:51;;;;;;;12.02;4.10;;;;;;;13.85;100.00;99532.28;5009185;28;20055;-69
2024/03/30 01:17:17;;;;;;;11.25;3.80;;;;;;;13.47;100.00;99426.84;5025472;28;20529;-69
2024/03/30 01:19:43;;;;;;;10.98;3.90;;;;;;;13.91;100.00;99532.81;5028219;28;20029;-70
2024/03/30 01:22:09;;;;;;;16.73;4.38;;;;;;;14.10;100.00;99503.78;5033731;28;20079;-69
2024/03/30 01:24:35;;;;;;;13.88;4.00;;;;;;;13.79;100.00;99422.69;5027906;28;20037;-70
2024/03/30 01:27:07;;;;;;;12.45;3.92;;;;;;;13.96;100.00;99537.72;5027232;28;20116;-70
2024/03/30 01:29:35;;;;;;;;;;;;;;;14.04;100.00;99542.44;5028083;28;20042;-70
2024/03/30 01:32:00;;;;;;;14.95;3.92;;;;;;;14.17;100.00;99541.75;5010776;28;19924;-70
2024/03/30 01:34:26;;;;;;;12.93;4.20;;;;;;;14.10;100.00;99562.59;5029922;28;20037;-71
2024/03/30 01:36:51;;;;;;;10.27;3.50;;;;;;;13.68;100.00;99456.47;5013047;28;20393;-70
2024/03/30 01:39:17;;;;;;;12.05;3.95;;;;;;;13.29;100.00;99399.66;5030884;28;20037;-70
2024/03/30 01:41:42;;;;;;;12.73;4.03;;;;;;;13.77;100.00;99540.31;5031411;28;20467;-69
2024/03/30 01:44:07;;;;;;;14.23;4.30;;;;;;;13.67;100.00;99562.09;5031050;28;20476;-70
2024/03/30 01:46:34;;;;;;;13.05;4.10;;;;;;;12.90;100.00;99460.19;5030637;28;20034;-70
2024/03/30 01:49:01;;;;;;;12.68;4.50;;;;;;;12.71;100.00;99518.03;5013497;28;20037;-71
2024/03/30 01:51:27;;;;;;;13.88;4.65;;;;;;;13.43;100.00;99604.09;5013128;28;20044;-70
2024/03/30 01:53:53;;;;;;;13.07;4.10;;;;;;;13.46;100.00;99614.19;5030730;28;20021;-71
2024/03/30 01:56:20;;;;;;;14.68;4.50;;;;;;;12.88;100.00;99507.91;5030659;28;20502;-70
2024/03/30 01:58:48;;;;;;;17.52;4.53;;;;;;;13.25;100.00;99495.13;5011783;28;20851;-73
2024/03/30 02:01:14;;;;;;;17.58;5.03;;;;;;;13.04;100.00;99488.47;5013211;28;20393;-71
2024/03/30 02:03:39;;;;;;;16.38;4.40;;;;;;;13.38;100.00;99615.41;5013345;28;20076;-70
2024/03/30 02:06:07;;;;;;;15.18;3.97;;;;;;;12.83;100.00;99587.22;5030078;28;20095;-70
2024/03/30 02:08:33;;;;;;;12.35;4.60;;;;;;;13.08;100.00;99571.66;5013022;28;20033;-73
2024/03/30 02:11:00;;;;;;;12.68;4.63;;;;;;;13.31;100.00;99614.03;5012212;28;20041;-70
2024/03/30 02:13:26;;;;;;;14.60;4.57;;;;;;;13.06;100.00;99647.47;5030310;28;20483;-70
2024/03/30 02:15:51;;;;;;;10.68;3.90;;;;;;;13.17;100.00;99637.63;5030889;28;20104;-70
2024/03/30 02:18:16;;;;;;;16.58;4.10;;;;;;;12.92;100.00;99565.56;5030479;28;20419;-70
2024/03/30 02:20:42;;;;;;;10.55;4.20;;;;;;;13.32;100.00;99667.59;5030647;28;20037;-70
2024/03/30 02:23:17;;;;;;;12.05;3.85;;;;;;;13.36;100.00;99629.97;5029936;28;20030;-70
2024/03/30 02:25:43;;;;;;;12.75;4.20;;;;;;;12.88;100.00;99620.16;5029079;28;20502;-69
2024/03/30 02:28:08;;;;;;;12.85;4.15;;;;;;;12.06;100.00;99490.28;5030431;28;20025;-70
2024/03/30 02:30:34;;;;;;;10.60;3.72;;;;;;;12.80;100.00;99674.06;5030166;28;20037;-69
2024/03/30 02:33:00;;;;;;;16.00;4.32;;;;;;;12.83;100.00;99652.69;5029678;28;20029;-70
2024/03/30 02:35:27;;;;;;;18.85;4.40;;;;;;;12.67;100.00;99614.28;5030622;28;20036;-69
2024/03/30 02:37:53;;;;;;;13.77;4.07;;;;;;;12.50;100.00;99542.75;5030160;28;20033;-70
2024/03/30 02:40:22;;;;;;;14.80;4.60;;;;;;;12.82;100.00;99659.53;5029941;28;20025;-74
2024/03/30 02:42:48;;;;;;;15.05;4.53;;;;;;;12.86;100.00;99660.22;5030641;28;20026;-69
2024/03/30 02:45:13;;;;;;;13.30;4.53;;;;;;;13.14;100.00;99655.63;5011448;28;20095;-69
2024/03/30 02:47:39;;;;;;;11.63;3.70;;;;;;;13.38;100.00;99708.16;5012412;28;20056;-69
2024/03/30 02:50:05;;;;;;;14.32;3.72;;;;;;;12.34;100.00;99602.09;5029188;28;20113;-70
2024/03/30 02:52:31;;;;;;;15.68;4.20;;;;;;;12.48;100.00;99620.22;5030073;28;20044;-69
2024/03/30 02:54:56;;;;;;;12.23;3.67;;;;;;;12.48;100.00;99625.31;5012166;28;20029;-70
2024/03/30 02:57:22;;;;;;;12.65;4.13;;;;;;;12.57;100.00;99742.22;5030197;28;20432;-71
2024/03/30 02:59:47;;;;;;;13.82;4.15;;;;;;;12.76;100.00;99755.88;5029021;28;20061;-69
2024/03/30 03:02:13;;;;;;;14.95;4.60;;;;;;;12.54;100.00;99765.28;5029943;28;20033;-69
2024/03/30 03:04:38;;;;;;;15.32;4.50;;;;;;;12.28;100.00;99671.16;5029843;28;20025;-69
2024/03/30 03:07:05;;;;;;;11.35;4.72;;;;;;;12.24;100.00;99695.09;5028980;28;20523;-74
2024/03/30 03:09:31;;;;;;;12.77;4.20;;;;;;;12.24;100.00;99817.44;5028846;28;20565;-69
2024/03/30 03:11:56;;;;;;;13.52;4.40;;;;;;;12.32;100.00;99818.00;5029439;28;20018;-71
2024/03/30 03:14:22;;;;;;;14.73;4.60;;;;;;;11.33;100.00;99589.06;5029709;28;20029;-70
2024/03/30 03:16:48;;;;;;;13.15;4.60;;;;;;;12.63;100.00;99768.31;5029396;28;20094;-70
2024/03/30 03:19:13;;;;;;;20.80;5.22;;;;;;;12.34;100.00;99709.16;5029309;28;20408;-69
2024/03/30 03:21:39;;;;;;;17.25;5.25;;;;;;;12.06;100.00;99710.19;5029075;28;20573;-68
2024/03/30 03:24:04;;;;;;;15.48;5.32;;;;;;;12.18;100.00;99809.13;5029078;28;20035;-70
2024/03/30 03:26:30;;;;;;;16.90;5.20;;;;;;;12.64;100.00;99835.41;5029137;28;20049;-70
2024/03/30 03:28:55;;;;;;;13.02;5.13;;;;;;;12.70;100.00;99840.28;5011280;28;20037;-70
2024/03/30 03:31:21;;;;;;;18.15;7.80;;;;;;;11.45;100.00;99723.50;5029429;28;20068;-69
2024/03/30 03:33:46;;;;;;;17.95;9.43;;;;;;;12.61;100.00;99909.50;5029199;28;20029;-70
2024/03/30 03:36:12;;;;;;;19.15;7.88;;;;;;;11.39;100.00;99720.38;5028581;28;20080;-69
2024/03/30 03:38:37;;;;;;;15.27;5.75;;;;;;;12.05;100.00;99835.13;5028581;28;20042;-69
2024/03/30 03:41:02;;;;;;;17.83;5.00;;;;;;;11.88;100.00;99884.13;5029145;28;20558;-70
2024/03/30 03:43:28;;;;;;;13.93;5.00;;;;;;;12.36;100.00;99964.84;5028753;28;20037;-70
2024/03/30 03:45:57;;;;;;;13.98;5.00;;;;;;;11.93;100.00;99900.09;5028785;28;20021;-70
2024/03/30 03:48:23;;;;;;;20.17;5.40;;;;;;;12.10;100.00;99973.41;5011227;28;20033;-70
2024/03/30 03:50:48;;;;;;;17.48;5.80;;;;;;;11.93;100.00;99902.63;5028482;28;20087;-69
2024/03/30 03:53:14;;;;;;;16.70;5.55;;;;;;;11.84;100.00;99889.38;5028539;28;20458;-73
2024/03/30 03:55:39;;;;;;;16.63;5.70;;;;;;;11.97;100.00;99982.31;5019248;28;20029;-69
2024/03/30 03:58:04;;;;;;;13.88;5.30;;;;;;;12.00;100.00;99988.16;5027167;28;20049;-68
2024/03/30 04:00:30;;;;;;;15.95;5.30;;;;;;;12.13;100.00;100031.91;5010683;28;20498;-69
2024/03/30 04:02:56;;;;;;;13.20;5.10;;;;;;;11.82;100.00;100015.97;5010882;28;21611;-69
2024/03/30 04:05:22;;;;;;;16.63;5.65;;;;;;;11.56;100.00;100056.66;5028165;28;20031;-69
2024/03/30 04:07:47;;;;;;;15.38;5.70;;;;;;;11.33;100.00;100006.44;5026785;28;20041;-69
2024/03/30 04:10:15;;;;;;;18.45;5.45;;;;;;;12.01;100.00;100068.81;5027654;28;20113;-70
2024/03/30 04:12:40;;;;;;;14.20;4.90;;;;;;;11.87;100.00;100101.53;5017904;28;20416;-72
2024/03/30 04:15:06;;;;;;;19.10;6.07;;;;;;;11.35;100.00;99992.78;5033340;28;20039;-69
2024/03/30 04:17:32;;;;;;;16.15;6.18;;;;;;;11.35;100.00;100017.41;5016091;28;20029;-72
2024/03/30 04:19:58;;;;;;;17.42;6.30;;;;;;;11.80;100.00;100105.16;5010558;28;20117;-69
2024/03/30 04:22:23;;;;;;;17.52;6.07;;;;;;;11.96;100.00;100124.16;5010726;28;20029;-70
2024/03/30 04:24:49;;;;;;;13.13;6.10;;;;;;;11.95;100.00;100130.16;5028247;28;20041;-70
2024/03/30 04:27:14;;;;;;;17.58;6.28;;;;;;;11.15;100.00;100042.63;5027584;28;20037;-72
2024/03/30 04:29:40;;;;;;;17.27;6.25;;;;;;;10.96;100.00;100077.94;5027556;28;20426;-70
2024/03/30 04:32:05;;;;;;;17.38;6.30;;;;;;;11.56;100.00;100166.13;5027738;28;20501;-70
2024/03/30 04:34:31;;;;;;;15.70;5.97;;;;;;;11.44;100.00;100208.06;5028207;28;20029;-71
2024/03/30 04:36:56;;;;;;;16.00;5.60;;;;;;;11.34;100.00;100164.22;5009664;28;20514;-70
2024/03/30 04:39:21;;;;;;;16.83;5.57;;;;;;;11.22;100.00;100126.38;5028105;28;20033;-69
2024/03/30 04:41:47;;;;;;;17.38;5.70;;;;;;;11.42;100.00;100114.78;5027975;28;20659;-72
2024/03/30 04:44:12;;;;;;;15.90;5.35;;;;;;;12.18;100.00;100209.25;5009099;28;20029;-69
2024/03/30 04:46:38;;;;;;;24.60;6.00;;;;;;;11.99;100.00;100223.44;5027849;28;20876;-71
2024/03/30 04:49:03;;;;;;;14.60;5.45;;;;;;;12.09;100.00;100219.75;5027581;28;20103;-70
2024/03/30 04:51:28;;;;;;;19.30;5.45;;;;;;;12.51;100.00;100206.53;5026905;28;20041;-72
2024/03/30 04:53:54;;;;;;;21.10;6.72;;;;;;;12.41;100.00;100195.81;5027718;28;20040;-69
2024/03/30 04:56:19;;;;;;;16.33;6.15;;;;;;;12.36;100.00;100182.34;5026833;28;20404;-70
2024/03/30 04:58:45;;;;;;;17.15;5.88;;;;;;;12.27;100.00;100093.44;5027497;28;20116;-70
2024/03/30 05:01:10;;;;;;;23.35;5.82;;;;;;;12.73;100.00;100147.13;5028083;28;20391;-73
2024/03/30 05:03:37;;;;;;;18.80;6.30;;;;;;;12.98;100.00;100129.25;5008668;28;20486;-71
2024/03/30 05:06:04;;;;;;;24.77;6.63;;;;;;;12.48;100.00;100105.47;5008452;28;20035;-73
2024/03/30 05:08:30;;;;;;;21.75;6.50;;;;;;;12.33;100.00;100057.56;5027074;28;20508;-75
2024/03/30 05:10:56;;;;;;;24.33;5.80;;;;;;;12.73;100.00;100120.78;5027544;28;20108;-69
2024/03/30 05:13:23;;;;;;;17.95;5.90;;;;;;;13.02;100.00;100133.34;5027606;28;20068;-69
2024/03/30 05:15:48;;;;;;;17.98;6.03;;;;;;;13.17;100.00;100106.47;5025942;28;20040;-70
2024/03/30 05:18:15;;;;;;;19.83;5.65;;;;;;;12.90;100.00;100047.84;5027010;28;20753;-70
2024/03/30 05:20:50;;;;;;;21.95;6.30;;;;;;;13.22;100.00;100077.34;5025693;28;20025;-70
2024/03/30 05:23:21;;;;;;;19.02;5.82;;;;;;;13.31;100.00;100043.78;5008611;28;20060;-70
2024/03/30 05:25:48;;;;;;;23.45;6.43;;;;;;;13.11;100.00;99930.59;5026989;28;20065;-70
2024/03/30 05:28:19;;;;;;;18.83;6.15;;;;;;;13.99;100.00;100002.72;5025772;28;20030;-70
2024/03/30 05:30:50;;;;;;;22.08;6.35;;;;;;;14.77;100.00;99944.75;5027109;28;20018;-70
2024/03/30 05:33:16;;;;;;;27.00;6.88;;;;;;;14.01;100.00;99842.47;5026951;28;20148;-70
2024/03/30 05:35:41;;;;;;;21.92;6.45;;;;;;;14.57;100.00;99852.72;5009711;28;20045;-70
2024/03/30 05:38:07;;;;;;;22.73;6.68;;;;;;;14.86;100.00;99861.59;5025205;28;20107;-70
2024/03/30 05:40:34;;;;;;;23.58;6.10;;;;;;;14.38;100.00;99867.28;5027511;28;20466;-70
2024/03/30 05:43:01;;;;;;;25.13;6.28;;;;;;;14.87;100.00;99819.75;5016161;28;20046;-69
2024/03/30 05:45:27;;;;;;;26.50;6.82;;;;;;;14.48;100.00;99677.47;5027131;28;20116;-69
2024/03/30 05:47:53;;;;;;;19.95;6.20;;;;;;;14.49;100.00;99673.19;5009372;28;20042;-70
2024/03/30 05:50:19;;;;;;;20.95;6.05;;;;;;;15.21;100.00;99694.28;5026340;28;20044;-70
2024/03/30 05:52:45;;;;;;;23.33;6.30;;;;;;;15.69;100.00;99747.31;5026797;28;20041;-70
2024/03/30 05:55:10;;;;;;;24.73;6.60;;;;;;;15.36;100.00;99739.59;5009277;28;20407;-70
2024/03/30 05:57:35;;;;;;;27.48;6.90;;;;;;;15.58;100.00;99641.06;5025483;28;20124;-70
2024/03/30 06:00:01;;;;;;;26.60;6.68;;;;;;;15.54;100.00;99619.06;5008795;28;20034;-70
2024/03/30 06:02:26;;;;;;;25.70;6.47;;;;;;;16.73;100.00;99643.97;5027196;28;21582;-70
2024/03/30 06:04:52;;;;;;;28.27;6.70;;;;;;;16.11;100.00;99538.09;5026998;28;20029;-70
2024/03/30 06:07:17;;;;;;;21.75;7.35;;;;;;;16.42;100.00;99639.75;5026726;28;20471;-70
2024/03/30 06:09:43;;;;;;;27.02;7.00;;;;;;;16.09;100.00;99650.19;5008475;28;20511;-70
2024/03/30 06:12:09;;;;;;;26.52;7.35;;;;;;;15.99;100.00;99517.44;5026949;28;20774;-71
2024/03/30 06:14:35;;;;;;;24.98;7.22;;;;;;;16.81;100.00;99580.16;5026522;28;20108;-73
2024/03/30 06:17:00;;;;;;;20.60;7.05;;;;;;;15.72;100.00;99535.22;5012053;28;20060;-72
2024/03/30 06:19:26;;;;;;;30.17;7.22;;;;;;;16.01;100.00;99649.78;5007787;28;20422;-70
2024/03/30 06:21:52;;;;;;;26.33;7.22;;;;;;;15.45;100.00;99491.44;5029592;28;20025;-71
2024/03/30 06:24:18;;;;;;;24.85;6.40;;;;;;;17.06;100.00;99582.91;5028780;28;20033;-71
2024/03/30 06:26:43;;;;;;;21.63;6.63;;;;;;;16.06;100.00;99509.31;5012405;28;20423;-72
2024/03/30 06:29:09;;;;;;;21.08;6.53;;;;;;;16.59;100.00;99616.56;5028102;28;20488;-68
2024/03/30 06:31:36;;;;;;;25.02;6.13;;;;;;;16.60;100.00;99482.16;5028875;28;20078;-69
2024/03/30 06:34:04;;;;;;;23.65;6.45;;;;;;;17.49;100.00;99475.75;5026049;28;20033;-70
2024/03/30 06:36:30;;;;;;;24.70;6.60;;;;;;;17.31;100.00;99516.25;5012442;28;20048;-74
2024/03/30 06:38:56;;;;;;;29.23;6.90;;;;;;;17.62;100.00;99415.72;5026402;28;20119;-69
2024/03/30 06:44:05;;;;;;;22.92;6.72;;;;;;;18.02;100.00;99478.22;5028293;28;20068;-73
2024/03/30 06:46:31;;;;;;;23.88;6.60;;;;;;;17.83;100.00;99542.03;5028330;28;20029;-71
2024/03/30 06:48:56;;;;;;;23.10;7.07;;;;;;;17.47;100.00;99493.78;5011160;28;20033;-74
2024/03/30 06:51:22;;;;;;;23.08;6.68;;;;;;;18.19;100.00;99396.38;5029365;28;20052;-70
2024/03/30 06:53:47;;;;;;;19.40;6.65;;;;;;;18.75;100.00;99495.50;5028785;28;20056;-70
2024/03/30 06:56:13;;;;;;;24.48;7.30;;;;;;;18.20;100.00;99430.66;5027772;28;20061;-69
2024/03/30 06:58:39;;;;;;;25.90;7.13;;;;;;;18.20;100.00;99413.44;5028026;28;20104;-69
2024/03/30 07:01:04;;;;;;;25.33;7.30;;;;;;;18.39;100.00;99342.69;5030324;28;20104;-74
2024/03/30 07:03:30;;;;;;;27.80;7.28;;;;;;;19.01;100.00;99476.44;5028886;28;20033;-73
2024/03/30 07:05:56;;;;;;;28.05;6.90;;;;;;;19.27;100.00;99508.13;5011939;28;20034;-70
2024/03/30 07:08:21;;;;;;;28.80;6.82;;;;;;;18.70;100.00;99438.31;5027070;28;20037;-70
2024/03/30 07:10:47;;;;;;;24.13;6.82;;;;;;;19.82;100.00;99381.16;5014834;28;20067;-71
2024/03/30 07:13:12;;;;;;;30.27;8.02;;;;;;;18.97;100.00;99423.50;5028133;28;20124;-72
2024/03/30 07:15:37;;;;;;;27.95;7.15;;;;;;;20.40;100.00;99473.88;5027918;28;20551;-70
2024/03/30 07:18:03;;;;;;;27.08;7.13;;;;;;;20.23;100.00;99520.00;5028185;28;21545;-71
2024/03/30 07:20:29;;;;;;;29.33;6.93;;;;;;;19.79;100.00;99555.06;5028919;28;20542;-70
2024/03/30 07:22:55;;;;;;;31.70;7.55;;;;;;;19.44;100.00;99636.69;5027448;28;20553;-71
2024/03/30 07:25:20;;;;;;;28.10;6.60;;;;;;;20.96;100.00;99522.94;5027379;28;20033;-70
2024/03/30 07:27:45;;;;;;;29.92;6.88;;;;;;;20.43;100.00;99644.13;5025552;28;20048;-73
2024/03/30 07:30:11;;;;;;;24.80;6.20;;;;;;;20.67;100.00;99664.75;5026292;28;20116;-71
2024/03/30 07:32:37;;;;;;;28.40;6.55;;;;;;;20.89;100.00;99663.97;5027839;28;20033;-70
2024/03/30 07:35:02;;;;;;;21.45;6.10;;;;;;;20.12;100.00;99696.34;5027752;28;20025;-70
2024/03/30 07:37:28;;;;;;;26.25;6.65;;;;;;;20.67;100.00;99771.53;5026966;28;20106;-72
2024/03/30 07:39:53;;;;;;;27.83;6.18;;;;;;;21.66;100.00;99736.44;5013991;28;20043;-72
2024/03/30 07:42:19;;;;;;;24.38;6.35;;;;;;;21.59;100.00;99780.06;4995413;28;20038;-72
2024/03/30 07:44:44;;;;;;;27.23;6.30;;;;;;;20.43;100.00;99845.59;5027206;28;20041;-72
2024/03/30 07:47:09;;;;;;;26.98;5.95;;;;;;;21.01;100.00;99839.69;5026931;28;20486;-70
2024/03/30 07:49:35;;;;;;;29.65;6.97;;;;;;;21.11;100.00;99830.34;5011107;28;20037;-71
2024/03/30 07:52:01;;;;;;;24.73;5.75;;;;;;;21.85;100.00;99736.69;5026178;28;20041;-71
2024/03/30 07:54:27;;;;;;;28.15;6.20;;;;;;;22.18;100.00;99819.53;5026604;28;20101;-72
2024/03/30 07:57:00;;;;;;;26.15;5.95;;;;;;;22.06;100.00;99876.63;5011819;28;20046;-70
2024/03/30 07:59:27;;;;;;;24.13;6.25;;;;;;;22.44;100.00;99849.38;5027104;28;20543;-73
2024/03/30 08:01:53;;;;;;;27.75;6.28;;;;;;;21.11;100.00;99967.38;5024814;28;20474;-71
2024/03/30 08:04:20;;;;;;;27.70;5.97;;;;;;;22.44;100.00;99799.31;5027359;28;20043;-71
2024/03/30 08:06:47;;;;;;;27.00;5.82;;;;;;;21.42;100.00;99828.88;5027046;28;20043;-72
2024/03/30 08:09:13;;;;;;;29.27;6.65;;;;;;;21.71;100.00;99830.06;5025299;28;20021;-71
2024/03/30 08:11:39;;;;;;;24.65;6.13;;;;;;;22.17;100.00;99899.91;5026367;28;20088;-72
2024/03/30 08:14:05;;;;;;;26.15;5.68;;;;;;;22.72;100.00;99765.06;5027463;28;20037;-74
2024/03/30 08:16:31;;;;;;;26.70;5.15;;;;;;;22.00;100.00;99955.59;5026451;28;20063;-70
2024/03/30 08:18:58;;;;;;;22.42;5.63;;;;;;;22.55;100.00;99897.78;5010839;28;20076;-72
2024/03/30 08:21:24;;;;;;;29.63;6.30;;;;;;;23.15;100.00;99881.72;5026979;28;20492;-71
2024/03/30 08:23:50;;;;;;;32.55;5.55;;;;;;;22.97;100.00;99779.44;5024155;28;20035;-73
2024/03/30 08:26:15;;;;;;;25.23;5.63;;;;;;;22.71;100.00;99933.72;5026962;28;20112;-72
2024/03/30 08:28:41;;;;;;;29.25;5.82;;;;;;;22.33;100.00;99856.34;5009758;28;20108;-75
2024/03/30 08:31:06;;;;;;;24.48;5.50;;;;;;;23.13;100.00;100021.09;5023120;28;20037;-72
2024/03/30 08:33:32;;;;;;;25.00;4.78;;;;;;;22.93;100.00;100037.41;5025269;28;20029;-72
2024/03/30 08:35:57;;;;;;;24.83;5.25;;;;;;;21.87;100.00;100037.72;5026295;28;20067;-73
2024/03/30 08:38:23;;;;;;;23.95;5.40;;;;;;;23.35;100.00;100015.06;5026382;28;20475;-72
2024/03/30 08:40:49;;;;;;;29.63;5.57;;;;;;;22.65;100.00;99973.91;5026674;28;20042;-73
2024/03/30 08:43:15;;;;;;;21.23;5.25;;;;;;;23.04;100.00;100025.25;5009675;28;20393;-73
2024/03/30 08:45:41;;;;;;;22.30;5.60;;;;;;;24.03;100.00;99989.50;5026186;28;20504;-71
2024/03/30 08:48:12;;;;;;;23.55;5.63;;;;;;;24.71;100.00;100025.28;5026926;28;20076;-72
2024/03/30 08:50:37;;;;;;;22.53;5.13;;;;;;;24.37;100.00;100086.28;5026428;28;20037;-72
2024/03/30 08:53:03;;;;;;;26.05;5.20;;;;;;;24.14;100.00;100004.22;5026284;28;20341;-72
2024/03/30 08:55:28;;;;;;;20.95;5.00;;;;;;;23.83;100.00;100120.16;5026572;28;20029;-73
2024/03/30 08:57:54;;;;;;;24.30;5.72;;;;;;;23.64;100.00;100035.13;5023785;28;20128;-72
2024/03/30 09:00:19;;;;;;;23.08;5.32;;;;;;;24.09;100.00;100139.69;5026500;28;20103;-72
2024/03/30 09:02:45;;;;;;;21.10;5.93;;;;;;;24.84;100.00;100090.94;5007559;28;20392;-73
2024/03/30 09:05:10;;;;;;;18.58;5.28;;;;;;;24.37;100.00;100234.47;5026522;28;20483;-72
2024/03/30 09:07:35;;;;;;;28.17;5.35;;;;;;;23.57;100.00;100192.34;5027691;28;20021;-72
2024/03/30 09:10:01;;;;;;;20.20;4.30;;;;;;;23.49;100.00;100262.25;5008940;28;20029;-72
2024/03/30 09:12:26;;;;;;;22.23;5.13;;;;;;;22.81;100.00;100100.59;5025686;28;20057;-72
2024/03/30 09:14:52;;;;;;;19.45;4.60;;;;;;;24.31;100.00;100272.19;5024941;28;20103;-72
2024/03/30 09:17:17;;;;;;;24.50;5.30;;;;;;;25.20;100.00;100214.50;5026460;28;20029;-71
2024/03/30 09:19:53;;;;;;;17.75;4.15;;;;;;;24.56;100.00;100334.25;5027958;28;20416;-72
2024/03/30 09:22:19;;;;;;;21.25;4.32;;;;;;;24.49;100.00;100308.88;5026171;28;20079;-73
2024/03/30 09:24:45;;;;;;;25.63;4.70;;;;;;;23.78;100.00;100259.97;5027862;28;20029;-73
2024/03/30 09:27:10;;;;;;;20.77;5.00;;;;;;;24.46;100.00;100341.19;5024397;28;20029;-74
2024/03/30 09:29:35;;;;;;;25.75;4.57;;;;;;;25.15;100.00;100287.81;5009404;28;20025;-73
2024/03/30 09:32:01;;;;;;;21.90;5.00;;;;;;;24.81;100.00;100268.13;5008969;28;20091;-75
2024/03/30 09:34:27;;;;;;;14.43;4.40;;;;;;;23.29;100.00;100509.47;5009611;28;20120;-72
2024/03/30 09:36:52;;;;;;;22.67;4.20;;;;;;;24.01;100.00;100361.16;5024582;28;20113;-72
2024/03/30 09:39:20;;;;;;;21.08;4.03;;;;;;;25.42;100.00;100418.31;5025550;28;20489;-74
2024/03/30 09:41:55;;;;;;;18.25;4.35;;;;;;;25.73;100.00;100408.81;5027030;28;20500;-74
2024/03/30 09:44:20;;;;;;;22.45;4.07;;;;;;;25.24;100.00;100427.63;5006483;28;20033;-72
2024/03/30 09:46:48;;;;;;;18.80;3.75;;;;;;;25.89;100.00;100483.94;5025554;28;20114;-73
2024/03/30 09:49:15;;;;;;;17.83;3.63;;;;;;;25.43;100.00;100479.88;5010921;28;20033;-74
2024/03/30 09:51:43;;;;;;;10.48;2.17;;;;;;;26.02;100.00;100498.41;5009718;28;20401;-73
2024/03/30 09:54:10;;;;;;;13.73;2.78;;;;;;;25.93;100.00;100581.75;5025894;28;20472;-74
2024/03/30 09:56:42;;;;;;;17.58;2.90;;;;;;;26.09;100.00;100593.41;5028636;28;20054;-70
2024/03/30 09:59:08;;;;;;;15.55;3.50;;;;;;;25.50;100.00;100490.63;5028893;28;20028;-71
2024/03/30 10:01:35;;;;;;;12.13;2.65;;;;;;;26.25;100.00;100586.00;5029289;28;20038;-71
2024/03/30 10:04:01;;;;;;;10.70;2.67;;;;;;;25.63;100.00;100652.81;5011273;28;20030;-71
2024/03/30 10:06:37;;;;;;;11.48;2.78;;;;;;;24.03;100.00;100623.50;5028219;28;20419;-75
2024/03/30 10:09:08;;;;;;;18.27;3.00;;;;;;;24.45;100.00;100586.53;5029378;28;20463;-72
2024/03/30 10:11:35;;;;;;;18.23;3.60;;;;;;;25.00;100.00;100504.25;5029235;28;20072;-71
2024/03/30 10:14:33;;;;;;;16.52;3.42;;;;;;;25.64;100.00;100602.34;5030502;28;20052;-71
2024/03/30 10:17:00;;;;;;;20.63;3.72;;;;;;;24.91;100.00;100661.94;5030060;28;20026;-72
2024/03/30 10:19:28;;;;;;;14.25;3.67;;;;;;;25.18;100.00;100527.03;5029028;28;20033;-72
2024/03/30 10:21:54;;;;;;;18.35;3.70;;;;;;;26.44;100.00;100540.94;5029198;28;20025;-73
2024/03/30 10:24:20;;;;;;;15.80;3.35;;;;;;;26.15;100.00;100545.16;5017096;28;20113;-73
2024/03/30 10:26:46;;;;;;;14.18;3.72;;;;;;;25.27;100.00;100624.44;5029569;28;20113;-73
2024/03/30 10:29:11;;;;;;;16.42;4.07;;;;;;;25.16;100.00;100583.59;5030632;28;20509;-73
2024/03/30 10:31:40;;;;;;;18.20;3.70;;;;;;;25.75;100.00;100459.00;5030310;28;20041;-73
2024/03/30 10:34:07;;;;;;;11.15;3.10;;;;;;;25.60;100.00;100486.31;5029739;28;20072;-75
2024/03/30 10:36:33;;;;;;;14.40;3.92;;;;;;;25.89;100.00;100554.28;5013008;28;20033;-73
2024/03/30 10:38:59;;;;;;;13.75;3.72;;;;;;;25.95;100.00;100494.63;5030152;28;20025;-72
2024/03/30 10:41:27;;;;;;;13.18;3.28;;;;;;;25.48;100.00;100472.53;5031716;28;20589;-73
2024/03/30 10:43:54;;;;;;;14.60;3.83;;;;;;;26.68;100.00;100491.88;5030065;28;20033;-73
2024/03/30 10:46:19;;;;;;;13.70;2.88;;;;;;;26.04;100.00;100547.81;5030816;28;20105;-72
2024/03/30 10:48:44;;;;;;;21.83;3.95;;;;;;;26.09;100.00;100459.63;5013150;28;20121;-73
2024/03/30 10:51:11;;;;;;;15.07;3.40;;;;;;;26.38;100.00;100439.72;5030363;28;20119;-71
2024/03/30 10:53:36;;;;;;;16.83;3.72;;;;;;;26.31;100.00;100524.66;5028125;28;20079;-72
2024/03/30 10:56:02;;;;;;;13.93;3.53;;;;;;;25.76;100.00;100538.81;5016398;28;20025;-72
2024/03/30 10:58:29;;;;;;;15.48;3.63;;;;;;;25.76;100.00;100526.63;5030011;28;20026;-74
2024/03/30 11:00:57;;;;;;;12.90;3.03;;;;;;;25.86;100.00;100597.06;5029795;28;20069;-74
2024/03/30 11:03:28;;;;;;;14.68;3.53;;;;;;;25.36;100.00;100549.00;5015327;28;20040;-70
2024/03/30 11:05:53;;;;;;;16.13;3.95;;;;;;;25.96;100.00;100431.16;5028245;28;20029;-72
2024/03/30 11:08:20;;;;;;;11.70;3.33;;;;;;;25.86;100.00;100508.44;5028843;28;20415;-71
2024/03/30 11:10:46;;;;;;;19.17;3.15;;;;;;;26.44;100.00;100473.13;5029594;28;20116;-72
2024/03/30 11:13:11;;;;;;;14.55;3.60;;;;;;;26.71;100.00;100462.09;5015860;28;20548;-72